sensor_id;sensor_type;location;lat;lon;timestamp;P1;durP1;ratioP1;P2;durP2;ratioP2
54743;SDS011;40639;53.170;6.728;2023-08-07T00:00:53;5.82;;;2.53;;
54743;SDS011;40639;53.170;6.728;2023-08-07T00:03:20;4.63;;;2.58;;
54743;SDS011;40639;53.170;6.728;2023-08-07T00:05:46;4.28;;;2.13;;
54743;SDS011;40639;53.170;6.728;2023-08-07T00:08:12;5.78;;;2.58;;
54743;SDS011;40639;53.170;6.728;2023-08-07T00:10:38;4.40;;;2.50;;
54743;SDS011;40639;53.170;6.728;2023-08-07T00:13:05;4.70;;;2.50;;
54743;SDS011;40639;53.170;6.728;2023-08-07T00:15:31;4.85;;;2.20;;
54743;SDS011;40639;53.170;6.728;2023-08-07T00:17:58;7.88;;;2.08;;
54743;SDS011;40639;53.170;6.728;2023-08-07T00:20:24;7.13;;;3.15;;
54743;SDS011;40639;53.170;6.728;2023-08-07T00:22:51;6.75;;;2.80;;
54743;SDS011;40639;53.170;6.728;2023-08-07T00:25:17;6.93;;;3.15;;
54743;SDS011;40639;53.170;6.728;2023-08-07T00:27:43;4.18;;;2.40;;
54743;SDS011;40639;53.170;6.728;2023-08-07T00:30:09;3.40;;;1.98;;
54743;SDS011;40639;53.170;6.728;2023-08-07T00:32:36;4.50;;;2.38;;
54743;SDS011;40639;53.170;6.728;2023-08-07T00:35:02;5.10;;;2.53;;
54743;SDS011;40639;53.170;6.728;2023-08-07T00:37:29;6.07;;;3.00;;
54743;SDS011;40639;53.170;6.728;2023-08-07T00:39:55;6.68;;;3.38;;
54743;SDS011;40639;53.170;6.728;2023-08-07T00:42:21;6.13;;;3.33;;
54743;SDS011;40639;53.170;6.728;2023-08-07T00:44:48;5.72;;;3.08;;
54743;SDS011;40639;53.170;6.728;2023-08-07T00:47:14;5.97;;;3.13;;
54743;SDS011;40639;53.170;6.728;2023-08-07T00:49:40;6.45;;;3.47;;
54743;SDS011;40639;53.170;6.728;2023-08-07T00:52:07;5.30;;;2.90;;
54743;SDS011;40639;53.170;6.728;2023-08-07T00:54:33;10.60;;;3.30;;
54743;SDS011;40639;53.170;6.728;2023-08-07T00:57:11;4.53;;;2.92;;
54743;SDS011;40639;53.170;6.728;2023-08-07T00:59:40;5.22;;;2.42;;
54743;SDS011;40639;53.170;6.728;2023-08-07T01:02:06;6.50;;;3.20;;
54743;SDS011;40639;53.170;6.728;2023-08-07T01:04:33;4.90;;;2.40;;
54743;SDS011;40639;53.170;6.728;2023-08-07T01:06:59;4.80;;;2.88;;
54743;SDS011;40639;53.170;6.728;2023-08-07T01:09:25;6.75;;;2.85;;
54743;SDS011;40639;53.170;6.728;2023-08-07T01:14:37;5.43;;;2.53;;
54743;SDS011;40639;53.170;6.728;2023-08-07T01:17:10;2.42;;;1.80;;
54743;SDS011;40639;53.170;6.728;2023-08-07T01:19:37;12.10;;;2.40;;
54743;SDS011;40639;53.170;6.728;2023-08-07T01:24:36;5.38;;;2.10;;
54743;SDS011;40639;53.170;6.728;2023-08-07T01:27:19;3.70;;;2.03;;
54743;SDS011;40639;53.170;6.728;2023-08-07T01:29:57;5.10;;;2.30;;
54743;SDS011;40639;53.170;6.728;2023-08-07T01:32:42;4.68;;;2.35;;
54743;SDS011;40639;53.170;6.728;2023-08-07T01:35:09;7.53;;;2.47;;
54743;SDS011;40639;53.170;6.728;2023-08-07T01:37:38;4.78;;;2.10;;
54743;SDS011;40639;53.170;6.728;2023-08-07T01:40:05;4.10;;;1.95;;
54743;SDS011;40639;53.170;6.728;2023-08-07T01:42:32;7.07;;;1.90;;
54743;SDS011;40639;53.170;6.728;2023-08-07T01:44:58;6.13;;;2.22;;
54743;SDS011;40639;53.170;6.728;2023-08-07T01:47:24;6.15;;;2.78;;
54743;SDS011;40639;53.170;6.728;2023-08-07T01:49:50;4.95;;;2.28;;
54743;SDS011;40639;53.170;6.728;2023-08-07T01:52:16;4.85;;;2.17;;
54743;SDS011;40639;53.170;6.728;2023-08-07T01:54:43;3.25;;;1.98;;
54743;SDS011;40639;53.170;6.728;2023-08-07T01:57:09;4.20;;;2.20;;
54743;SDS011;40639;53.170;6.728;2023-08-07T01:59:35;5.90;;;2.28;;
54743;SDS011;40639;53.170;6.728;2023-08-07T02:02:01;4.95;;;2.03;;
54743;SDS011;40639;53.170;6.728;2023-08-07T02:04:27;3.72;;;2.17;;
54743;SDS011;40639;53.170;6.728;2023-08-07T02:06:53;7.15;;;2.60;;
54743;SDS011;40639;53.170;6.728;2023-08-07T02:09:19;3.53;;;2.15;;
54743;SDS011;40639;53.170;6.728;2023-08-07T02:11:46;4.63;;;2.20;;
54743;SDS011;40639;53.170;6.728;2023-08-07T02:14:12;4.25;;;2.25;;
54743;SDS011;40639;53.170;6.728;2023-08-07T02:16:38;4.22;;;2.00;;
54743;SDS011;40639;53.170;6.728;2023-08-07T02:19:04;3.90;;;1.98;;
54743;SDS011;40639;53.170;6.728;2023-08-07T02:21:31;4.57;;;2.30;;
54743;SDS011;40639;53.170;6.728;2023-08-07T02:23:57;5.95;;;2.25;;
54743;SDS011;40639;53.170;6.728;2023-08-07T02:26:23;5.88;;;2.25;;
54743;SDS011;40639;53.170;6.728;2023-08-07T02:28:49;5.35;;;2.53;;
54743;SDS011;40639;53.170;6.728;2023-08-07T02:31:15;2.65;;;1.83;;
54743;SDS011;40639;53.170;6.728;2023-08-07T02:33:41;5.15;;;2.50;;
54743;SDS011;40639;53.170;6.728;2023-08-07T02:36:08;4.20;;;1.70;;
54743;SDS011;40639;53.170;6.728;2023-08-07T02:38:34;6.93;;;2.40;;
54743;SDS011;40639;53.170;6.728;2023-08-07T02:41:00;5.88;;;2.20;;
54743;SDS011;40639;53.170;6.728;2023-08-07T02:43:26;5.82;;;2.28;;
54743;SDS011;40639;53.170;6.728;2023-08-07T02:45:53;5.93;;;2.55;;
54743;SDS011;40639;53.170;6.728;2023-08-07T02:48:19;4.70;;;2.20;;
54743;SDS011;40639;53.170;6.728;2023-08-07T02:50:46;5.97;;;2.13;;
54743;SDS011;40639;53.170;6.728;2023-08-07T02:53:12;7.30;;;2.53;;
54743;SDS011;40639;53.170;6.728;2023-08-07T02:55:38;9.95;;;2.47;;
54743;SDS011;40639;53.170;6.728;2023-08-07T02:58:04;6.95;;;2.05;;
54743;SDS011;40639;53.170;6.728;2023-08-07T03:00:30;7.07;;;2.03;;
54743;SDS011;40639;53.170;6.728;2023-08-07T03:02:56;8.80;;;3.00;;
54743;SDS011;40639;53.170;6.728;2023-08-07T03:05:22;7.78;;;2.35;;
54743;SDS011;40639;53.170;6.728;2023-08-07T03:07:49;12.13;;;2.38;;
54743;SDS011;40639;53.170;6.728;2023-08-07T03:10:15;9.00;;;2.63;;
54743;SDS011;40639;53.170;6.728;2023-08-07T03:12:41;9.20;;;2.88;;
54743;SDS011;40639;53.170;6.728;2023-08-07T03:15:07;6.03;;;2.50;;
54743;SDS011;40639;53.170;6.728;2023-08-07T03:17:33;4.63;;;2.03;;
54743;SDS011;40639;53.170;6.728;2023-08-07T03:19:59;7.57;;;2.63;;
54743;SDS011;40639;53.170;6.728;2023-08-07T03:22:25;7.68;;;2.55;;
54743;SDS011;40639;53.170;6.728;2023-08-07T03:24:52;10.10;;;2.80;;
54743;SDS011;40639;53.170;6.728;2023-08-07T03:27:18;8.52;;;3.05;;
54743;SDS011;40639;53.170;6.728;2023-08-07T03:29:44;4.63;;;2.28;;
54743;SDS011;40639;53.170;6.728;2023-08-07T03:32:10;6.65;;;2.35;;
54743;SDS011;40639;53.170;6.728;2023-08-07T03:34:36;6.22;;;2.40;;
54743;SDS011;40639;53.170;6.728;2023-08-07T03:37:02;6.93;;;2.40;;
54743;SDS011;40639;53.170;6.728;2023-08-07T03:39:28;5.95;;;2.30;;
54743;SDS011;40639;53.170;6.728;2023-08-07T03:41:55;6.57;;;2.20;;
54743;SDS011;40639;53.170;6.728;2023-08-07T03:44:21;4.85;;;2.10;;
54743;SDS011;40639;53.170;6.728;2023-08-07T03:46:47;7.40;;;2.50;;
54743;SDS011;40639;53.170;6.728;2023-08-07T03:49:13;6.25;;;2.28;;
54743;SDS011;40639;53.170;6.728;2023-08-07T03:51:39;7.97;;;2.30;;
54743;SDS011;40639;53.170;6.728;2023-08-07T03:54:05;10.57;;;2.70;;
54743;SDS011;40639;53.170;6.728;2023-08-07T03:56:32;4.97;;;2.03;;
54743;SDS011;40639;53.170;6.728;2023-08-07T03:59:01;5.13;;;2.17;;
54743;SDS011;40639;53.170;6.728;2023-08-07T04:01:27;8.43;;;2.10;;
54743;SDS011;40639;53.170;6.728;2023-08-07T04:03:54;3.88;;;2.10;;
54743;SDS011;40639;53.170;6.728;2023-08-07T04:06:20;12.25;;;2.38;;
54743;SDS011;40639;53.170;6.728;2023-08-07T04:08:46;7.57;;;2.63;;
54743;SDS011;40639;53.170;6.728;2023-08-07T04:11:12;6.28;;;2.53;;
54743;SDS011;40639;53.170;6.728;2023-08-07T04:13:38;7.80;;;2.10;;
54743;SDS011;40639;53.170;6.728;2023-08-07T04:16:05;9.82;;;2.28;;
54743;SDS011;40639;53.170;6.728;2023-08-07T04:18:31;5.03;;;1.80;;
54743;SDS011;40639;53.170;6.728;2023-08-07T04:20:57;5.43;;;2.10;;
54743;SDS011;40639;53.170;6.728;2023-08-07T04:23:23;5.60;;;2.00;;
54743;SDS011;40639;53.170;6.728;2023-08-07T04:25:50;4.88;;;1.77;;
54743;SDS011;40639;53.170;6.728;2023-08-07T04:28:17;7.40;;;2.00;;
54743;SDS011;40639;53.170;6.728;2023-08-07T04:30:43;6.13;;;1.98;;
54743;SDS011;40639;53.170;6.728;2023-08-07T04:33:10;5.65;;;1.80;;
54743;SDS011;40639;53.170;6.728;2023-08-07T04:35:36;11.60;;;2.67;;
54743;SDS011;40639;53.170;6.728;2023-08-07T04:38:02;8.32;;;2.33;;
54743;SDS011;40639;53.170;6.728;2023-08-07T04:40:28;11.27;;;2.90;;
54743;SDS011;40639;53.170;6.728;2023-08-07T04:42:55;6.43;;;2.42;;
54743;SDS011;40639;53.170;6.728;2023-08-07T04:45:21;7.13;;;2.50;;
54743;SDS011;40639;53.170;6.728;2023-08-07T04:47:47;10.50;;;2.95;;
54743;SDS011;40639;53.170;6.728;2023-08-07T04:50:13;8.77;;;2.45;;
54743;SDS011;40639;53.170;6.728;2023-08-07T04:52:39;9.90;;;3.15;;
54743;SDS011;40639;53.170;6.728;2023-08-07T04:55:05;8.18;;;3.30;;
54743;SDS011;40639;53.170;6.728;2023-08-07T04:57:32;7.85;;;3.05;;
54743;SDS011;40639;53.170;6.728;2023-08-07T04:59:58;9.45;;;2.83;;
54743;SDS011;40639;53.170;6.728;2023-08-07T05:02:24;14.32;;;3.00;;
54743;SDS011;40639;53.170;6.728;2023-08-07T05:04:50;10.43;;;2.97;;
54743;SDS011;40639;53.170;6.728;2023-08-07T05:07:16;14.23;;;3.90;;
54743;SDS011;40639;53.170;6.728;2023-08-07T05:09:42;8.07;;;2.60;;
54743;SDS011;40639;53.170;6.728;2023-08-07T05:12:08;8.77;;;2.72;;
54743;SDS011;40639;53.170;6.728;2023-08-07T05:14:34;7.82;;;2.72;;
54743;SDS011;40639;53.170;6.728;2023-08-07T05:17:00;9.88;;;2.38;;
54743;SDS011;40639;53.170;6.728;2023-08-07T05:19:27;6.50;;;2.15;;
54743;SDS011;40639;53.170;6.728;2023-08-07T05:21:53;7.18;;;2.38;;
54743;SDS011;40639;53.170;6.728;2023-08-07T05:24:19;8.68;;;3.33;;
54743;SDS011;40639;53.170;6.728;2023-08-07T05:26:45;11.88;;;2.80;;
54743;SDS011;40639;53.170;6.728;2023-08-07T05:29:11;9.10;;;3.05;;
54743;SDS011;40639;53.170;6.728;2023-08-07T05:31:38;6.50;;;2.20;;
54743;SDS011;40639;53.170;6.728;2023-08-07T05:34:04;14.60;;;3.30;;
54743;SDS011;40639;53.170;6.728;2023-08-07T05:36:30;11.07;;;3.20;;
54743;SDS011;40639;53.170;6.728;2023-08-07T05:38:58;7.22;;;2.40;;
54743;SDS011;40639;53.170;6.728;2023-08-07T05:41:24;8.00;;;3.05;;
54743;SDS011;40639;53.170;6.728;2023-08-07T05:43:50;9.75;;;3.05;;
54743;SDS011;40639;53.170;6.728;2023-08-07T05:46:16;14.25;;;3.72;;
54743;SDS011;40639;53.170;6.728;2023-08-07T05:48:42;9.40;;;2.85;;
54743;SDS011;40639;53.170;6.728;2023-08-07T05:51:08;8.82;;;2.63;;
54743;SDS011;40639;53.170;6.728;2023-08-07T05:53:34;9.23;;;2.72;;
54743;SDS011;40639;53.170;6.728;2023-08-07T05:56:01;16.27;;;3.90;;
54743;SDS011;40639;53.170;6.728;2023-08-07T05:58:28;14.27;;;2.67;;
54743;SDS011;40639;53.170;6.728;2023-08-07T06:00:54;12.45;;;3.40;;
54743;SDS011;40639;53.170;6.728;2023-08-07T06:03:20;9.23;;;3.28;;
54743;SDS011;40639;53.170;6.728;2023-08-07T06:05:46;7.72;;;2.72;;
54743;SDS011;40639;53.170;6.728;2023-08-07T06:08:12;7.97;;;2.80;;
54743;SDS011;40639;53.170;6.728;2023-08-07T06:10:38;13.25;;;3.13;;
54743;SDS011;40639;53.170;6.728;2023-08-07T06:13:04;9.10;;;2.90;;
54743;SDS011;40639;53.170;6.728;2023-08-07T06:15:32;10.38;;;3.03;;
54743;SDS011;40639;53.170;6.728;2023-08-07T06:17:58;11.00;;;3.50;;
54743;SDS011;40639;53.170;6.728;2023-08-07T06:20:24;12.60;;;3.17;;
54743;SDS011;40639;53.170;6.728;2023-08-07T06:22:51;10.43;;;3.20;;
54743;SDS011;40639;53.170;6.728;2023-08-07T06:25:17;13.52;;;3.13;;
54743;SDS011;40639;53.170;6.728;2023-08-07T06:27:44;11.23;;;3.33;;
54743;SDS011;40639;53.170;6.728;2023-08-07T06:30:11;6.20;;;2.15;;
54743;SDS011;40639;53.170;6.728;2023-08-07T06:32:38;10.43;;;2.25;;
54743;SDS011;40639;53.170;6.728;2023-08-07T06:35:04;11.40;;;1.95;;
54743;SDS011;40639;53.170;6.728;2023-08-07T06:37:31;8.52;;;2.20;;
54743;SDS011;40639;53.170;6.728;2023-08-07T06:39:57;7.25;;;1.80;;
54743;SDS011;40639;53.170;6.728;2023-08-07T06:42:23;6.82;;;1.90;;
54743;SDS011;40639;53.170;6.728;2023-08-07T06:44:49;6.70;;;1.90;;
54743;SDS011;40639;53.170;6.728;2023-08-07T06:47:15;6.75;;;2.72;;
54743;SDS011;40639;53.170;6.728;2023-08-07T06:49:41;10.70;;;2.08;;
54743;SDS011;40639;53.170;6.728;2023-08-07T06:52:08;7.18;;;1.85;;
54743;SDS011;40639;53.170;6.728;2023-08-07T06:54:34;6.43;;;1.73;;
54743;SDS011;40639;53.170;6.728;2023-08-07T06:57:00;5.57;;;1.95;;
54743;SDS011;40639;53.170;6.728;2023-08-07T06:59:26;11.18;;;2.50;;
54743;SDS011;40639;53.170;6.728;2023-08-07T07:01:52;8.13;;;2.28;;
54743;SDS011;40639;53.170;6.728;2023-08-07T07:04:18;8.18;;;2.25;;
54743;SDS011;40639;53.170;6.728;2023-08-07T07:06:44;7.70;;;2.03;;
54743;SDS011;40639;53.170;6.728;2023-08-07T07:09:11;9.15;;;2.42;;
54743;SDS011;40639;53.170;6.728;2023-08-07T07:11:41;10.85;;;2.75;;
54743;SDS011;40639;53.170;6.728;2023-08-07T07:14:07;8.90;;;2.25;;
54743;SDS011;40639;53.170;6.728;2023-08-07T07:16:33;11.93;;;2.50;;
54743;SDS011;40639;53.170;6.728;2023-08-07T07:19:01;5.95;;;1.98;;
54743;SDS011;40639;53.170;6.728;2023-08-07T07:21:27;5.40;;;2.22;;
54743;SDS011;40639;53.170;6.728;2023-08-07T07:23:53;10.88;;;2.17;;
54743;SDS011;40639;53.170;6.728;2023-08-07T07:26:19;9.38;;;2.15;;
54743;SDS011;40639;53.170;6.728;2023-08-07T07:28:45;9.63;;;2.38;;
54743;SDS011;40639;53.170;6.728;2023-08-07T07:31:11;9.18;;;2.60;;
54743;SDS011;40639;53.170;6.728;2023-08-07T07:33:38;9.85;;;2.75;;
54743;SDS011;40639;53.170;6.728;2023-08-07T07:36:04;8.48;;;2.65;;
54743;SDS011;40639;53.170;6.728;2023-08-07T07:38:31;8.02;;;2.90;;
54743;SDS011;40639;53.170;6.728;2023-08-07T07:40:58;7.97;;;2.42;;
54743;SDS011;40639;53.170;6.728;2023-08-07T07:43:24;8.48;;;2.92;;
54743;SDS011;40639;53.170;6.728;2023-08-07T07:45:50;8.38;;;2.15;;
54743;SDS011;40639;53.170;6.728;2023-08-07T07:48:16;6.82;;;2.15;;
54743;SDS011;40639;53.170;6.728;2023-08-07T07:50:42;16.75;;;2.30;;
54743;SDS011;40639;53.170;6.728;2023-08-07T07:53:08;7.18;;;2.65;;
54743;SDS011;40639;53.170;6.728;2023-08-07T07:55:34;9.32;;;2.42;;
54743;SDS011;40639;53.170;6.728;2023-08-07T07:58:02;10.07;;;2.20;;
54743;SDS011;40639;53.170;6.728;2023-08-07T08:00:29;9.70;;;2.75;;
54743;SDS011;40639;53.170;6.728;2023-08-07T08:02:55;7.95;;;2.90;;
54743;SDS011;40639;53.170;6.728;2023-08-07T08:05:21;7.97;;;2.10;;
54743;SDS011;40639;53.170;6.728;2023-08-07T08:07:47;6.88;;;2.00;;
54743;SDS011;40639;53.170;6.728;2023-08-07T08:10:13;15.23;;;3.08;;
54743;SDS011;40639;53.170;6.728;2023-08-07T08:12:39;5.25;;;2.42;;
54743;SDS011;40639;53.170;6.728;2023-08-07T08:15:06;7.80;;;2.15;;
54743;SDS011;40639;53.170;6.728;2023-08-07T08:17:32;7.38;;;2.15;;
54743;SDS011;40639;53.170;6.728;2023-08-07T08:19:58;5.65;;;2.00;;
54743;SDS011;40639;53.170;6.728;2023-08-07T08:22:24;5.97;;;2.35;;
54743;SDS011;40639;53.170;6.728;2023-08-07T08:24:51;6.00;;;2.00;;
54743;SDS011;40639;53.170;6.728;2023-08-07T08:27:17;7.45;;;1.80;;
54743;SDS011;40639;53.170;6.728;2023-08-07T08:29:43;8.07;;;2.20;;
54743;SDS011;40639;53.170;6.728;2023-08-07T08:32:10;10.68;;;2.60;;
54743;SDS011;40639;53.170;6.728;2023-08-07T08:34:37;6.70;;;2.13;;
54743;SDS011;40639;53.170;6.728;2023-08-07T08:37:03;6.70;;;2.40;;
54743;SDS011;40639;53.170;6.728;2023-08-07T08:39:31;11.80;;;2.80;;
54743;SDS011;40639;53.170;6.728;2023-08-07T08:41:57;8.45;;;2.75;;
54743;SDS011;40639;53.170;6.728;2023-08-07T08:44:23;5.72;;;2.80;;
54743;SDS011;40639;53.170;6.728;2023-08-07T08:46:51;7.28;;;2.53;;
54743;SDS011;40639;53.170;6.728;2023-08-07T08:49:28;6.72;;;2.13;;
54743;SDS011;40639;53.170;6.728;2023-08-07T08:51:56;10.10;;;2.50;;
54743;SDS011;40639;53.170;6.728;2023-08-07T08:54:23;7.90;;;2.67;;
54743;SDS011;40639;53.170;6.728;2023-08-07T08:56:50;11.88;;;2.47;;
54743;SDS011;40639;53.170;6.728;2023-08-07T08:59:16;7.85;;;2.60;;
54743;SDS011;40639;53.170;6.728;2023-08-07T09:01:44;8.35;;;2.50;;
54743;SDS011;40639;53.170;6.728;2023-08-07T09:04:10;7.00;;;1.95;;
54743;SDS011;40639;53.170;6.728;2023-08-07T09:06:37;10.52;;;2.17;;
54743;SDS011;40639;53.170;6.728;2023-08-07T09:09:04;6.15;;;1.98;;
54743;SDS011;40639;53.170;6.728;2023-08-07T09:11:31;7.93;;;1.98;;
54743;SDS011;40639;53.170;6.728;2023-08-07T09:13:58;9.48;;;2.63;;
54743;SDS011;40639;53.170;6.728;2023-08-07T09:16:26;8.32;;;1.90;;
54743;SDS011;40639;53.170;6.728;2023-08-07T09:18:54;6.95;;;1.77;;
54743;SDS011;40639;53.170;6.728;2023-08-07T09:21:20;8.20;;;2.10;;
54743;SDS011;40639;53.170;6.728;2023-08-07T09:23:47;5.35;;;1.80;;
54743;SDS011;40639;53.170;6.728;2023-08-07T09:26:13;6.68;;;2.20;;
54743;SDS011;40639;53.170;6.728;2023-08-07T09:28:39;6.75;;;1.85;;
54743;SDS011;40639;53.170;6.728;2023-08-07T09:31:06;8.23;;;2.13;;
54743;SDS011;40639;53.170;6.728;2023-08-07T09:33:34;9.85;;;2.10;;
54743;SDS011;40639;53.170;6.728;2023-08-07T09:36:00;9.90;;;2.55;;
54743;SDS011;40639;53.170;6.728;2023-08-07T09:38:28;7.53;;;2.15;;
54743;SDS011;40639;53.170;6.728;2023-08-07T09:40:58;8.55;;;1.98;;
54743;SDS011;40639;53.170;6.728;2023-08-07T09:43:25;6.28;;;2.40;;
54743;SDS011;40639;53.170;6.728;2023-08-07T09:45:51;8.98;;;2.17;;
54743;SDS011;40639;53.170;6.728;2023-08-07T09:48:24;8.50;;;2.63;;
54743;SDS011;40639;53.170;6.728;2023-08-07T09:50:50;7.90;;;1.98;;
54743;SDS011;40639;53.170;6.728;2023-08-07T09:53:16;5.38;;;1.75;;
54743;SDS011;40639;53.170;6.728;2023-08-07T09:55:43;10.32;;;2.47;;
54743;SDS011;40639;53.170;6.728;2023-08-07T09:58:09;8.10;;;2.33;;
54743;SDS011;40639;53.170;6.728;2023-08-07T10:00:39;4.53;;;2.00;;
54743;SDS011;40639;53.170;6.728;2023-08-07T10:03:06;6.00;;;1.88;;
54743;SDS011;40639;53.170;6.728;2023-08-07T10:05:32;8.68;;;2.08;;
54743;SDS011;40639;53.170;6.728;2023-08-07T10:07:59;10.18;;;2.40;;
54743;SDS011;40639;53.170;6.728;2023-08-07T10:10:25;5.25;;;2.08;;
54743;SDS011;40639;53.170;6.728;2023-08-07T10:12:52;7.25;;;1.98;;
54743;SDS011;40639;53.170;6.728;2023-08-07T10:15:19;5.90;;;1.98;;
54743;SDS011;40639;53.170;6.728;2023-08-07T10:17:45;7.50;;;1.95;;
54743;SDS011;40639;53.170;6.728;2023-08-07T10:20:12;6.30;;;2.28;;
54743;SDS011;40639;53.170;6.728;2023-08-07T10:22:38;5.93;;;2.10;;
54743;SDS011;40639;53.170;6.728;2023-08-07T10:25:04;7.88;;;2.30;;
54743;SDS011;40639;53.170;6.728;2023-08-07T10:27:33;5.90;;;2.55;;
54743;SDS011;40639;53.170;6.728;2023-08-07T10:30:01;8.68;;;2.10;;
54743;SDS011;40639;53.170;6.728;2023-08-07T10:32:27;7.00;;;2.60;;
54743;SDS011;40639;53.170;6.728;2023-08-07T10:34:54;9.40;;;2.13;;
54743;SDS011;40639;53.170;6.728;2023-08-07T10:40:06;5.57;;;1.83;;
54743;SDS011;40639;53.170;6.728;2023-08-07T10:45:20;5.82;;;2.63;;
54743;SDS011;40639;53.170;6.728;2023-08-07T10:50:29;8.00;;;2.40;;
54743;SDS011;40639;53.170;6.728;2023-08-07T10:52:55;8.27;;;1.70;;
54743;SDS011;40639;53.170;6.728;2023-08-07T10:55:22;4.13;;;1.80;;
54743;SDS011;40639;53.170;6.728;2023-08-07T10:57:49;8.43;;;2.03;;
54743;SDS011;40639;53.170;6.728;2023-08-07T11:00:15;4.88;;;1.60;;
54743;SDS011;40639;53.170;6.728;2023-08-07T11:02:41;4.75;;;1.83;;
54743;SDS011;40639;53.170;6.728;2023-08-07T11:05:08;4.57;;;1.58;;
54743;SDS011;40639;53.170;6.728;2023-08-07T11:07:34;4.18;;;1.35;;
54743;SDS011;40639;53.170;6.728;2023-08-07T11:10:06;4.50;;;1.40;;
54743;SDS011;40639;53.170;6.728;2023-08-07T11:12:33;5.18;;;1.30;;
54743;SDS011;40639;53.170;6.728;2023-08-07T11:15:00;3.97;;;1.25;;
54743;SDS011;40639;53.170;6.728;2023-08-07T11:17:26;6.88;;;1.58;;
54743;SDS011;40639;53.170;6.728;2023-08-07T11:19:53;3.90;;;1.45;;
54743;SDS011;40639;53.170;6.728;2023-08-07T11:22:20;6.30;;;1.73;;
54743;SDS011;40639;53.170;6.728;2023-08-07T11:24:46;9.55;;;1.85;;
54743;SDS011;40639;53.170;6.728;2023-08-07T11:27:12;8.32;;;2.22;;
54743;SDS011;40639;53.170;6.728;2023-08-07T11:29:38;6.30;;;1.90;;
54743;SDS011;40639;53.170;6.728;2023-08-07T11:32:05;6.28;;;1.80;;
54743;SDS011;40639;53.170;6.728;2023-08-07T11:34:31;6.00;;;1.80;;
54743;SDS011;40639;53.170;6.728;2023-08-07T11:36:58;9.68;;;2.60;;
54743;SDS011;40639;53.170;6.728;2023-08-07T11:39:25;9.77;;;2.08;;
54743;SDS011;40639;53.170;6.728;2023-08-07T11:41:51;5.90;;;1.67;;
54743;SDS011;40639;53.170;6.728;2023-08-07T11:44:20;7.78;;;1.55;;
54743;SDS011;40639;53.170;6.728;2023-08-07T11:46:46;6.60;;;1.80;;
54743;SDS011;40639;53.170;6.728;2023-08-07T11:49:12;6.40;;;1.75;;
54743;SDS011;40639;53.170;6.728;2023-08-07T11:51:38;9.35;;;2.10;;
54743;SDS011;40639;53.170;6.728;2023-08-07T11:54:04;5.72;;;1.50;;
54743;SDS011;40639;53.170;6.728;2023-08-07T11:56:30;7.22;;;1.73;;
54743;SDS011;40639;53.170;6.728;2023-08-07T11:58:56;9.05;;;2.22;;
54743;SDS011;40639;53.170;6.728;2023-08-07T12:01:23;3.53;;;1.45;;
54743;SDS011;40639;53.170;6.728;2023-08-07T12:03:51;6.10;;;1.60;;
54743;SDS011;40639;53.170;6.728;2023-08-07T12:06:21;1.90;;;1.08;;
54743;SDS011;40639;53.170;6.728;2023-08-07T12:08:48;4.10;;;1.00;;
54743;SDS011;40639;53.170;6.728;2023-08-07T12:11:16;4.32;;;1.10;;
54743;SDS011;40639;53.170;6.728;2023-08-07T12:13:43;2.45;;;1.20;;
54743;SDS011;40639;53.170;6.728;2023-08-07T12:16:10;4.95;;;1.52;;
54743;SDS011;40639;53.170;6.728;2023-08-07T12:18:42;6.28;;;1.70;;
54743;SDS011;40639;53.170;6.728;2023-08-07T12:21:09;4.40;;;1.48;;
54743;SDS011;40639;53.170;6.728;2023-08-07T12:23:35;4.55;;;1.52;;
54743;SDS011;40639;53.170;6.728;2023-08-07T12:26:03;4.78;;;1.30;;
54743;SDS011;40639;53.170;6.728;2023-08-07T12:28:32;3.28;;;1.33;;
54743;SDS011;40639;53.170;6.728;2023-08-07T12:30:58;4.20;;;1.15;;
54743;SDS011;40639;53.170;6.728;2023-08-07T12:33:24;3.88;;;1.20;;
54743;SDS011;40639;53.170;6.728;2023-08-07T12:35:50;4.32;;;1.90;;
54743;SDS011;40639;53.170;6.728;2023-08-07T12:38:18;5.07;;;1.67;;
54743;SDS011;40639;53.170;6.728;2023-08-07T12:40:44;5.47;;;2.05;;
54743;SDS011;40639;53.170;6.728;2023-08-07T12:43:10;7.75;;;2.28;;
54743;SDS011;40639;53.170;6.728;2023-08-07T12:45:37;6.60;;;2.03;;
54743;SDS011;40639;53.170;6.728;2023-08-07T12:48:04;5.53;;;2.00;;
54743;SDS011;40639;53.170;6.728;2023-08-07T12:50:30;5.88;;;1.90;;
54743;SDS011;40639;53.170;6.728;2023-08-07T12:52:56;6.22;;;1.52;;
54743;SDS011;40639;53.170;6.728;2023-08-07T12:55:23;3.67;;;1.50;;
54743;SDS011;40639;53.170;6.728;2023-08-07T12:57:49;8.85;;;2.05;;
54743;SDS011;40639;53.170;6.728;2023-08-07T13:00:16;8.10;;;2.05;;
54743;SDS011;40639;53.170;6.728;2023-08-07T13:02:44;4.45;;;1.88;;
54743;SDS011;40639;53.170;6.728;2023-08-07T13:05:10;5.65;;;1.83;;
54743;SDS011;40639;53.170;6.728;2023-08-07T13:07:37;4.07;;;1.70;;
54743;SDS011;40639;53.170;6.728;2023-08-07T13:10:04;5.30;;;1.40;;
54743;SDS011;40639;53.170;6.728;2023-08-07T13:12:30;5.50;;;1.80;;
54743;SDS011;40639;53.170;6.728;2023-08-07T13:14:59;6.85;;;1.83;;
54743;SDS011;40639;53.170;6.728;2023-08-07T13:17:25;5.78;;;1.63;;
54743;SDS011;40639;53.170;6.728;2023-08-07T13:19:51;7.25;;;1.73;;
54743;SDS011;40639;53.170;6.728;2023-08-07T13:22:17;7.38;;;2.15;;
54743;SDS011;40639;53.170;6.728;2023-08-07T13:24:44;3.60;;;1.65;;
54743;SDS011;40639;53.170;6.728;2023-08-07T13:27:10;6.35;;;1.85;;
54743;SDS011;40639;53.170;6.728;2023-08-07T13:29:36;7.88;;;1.90;;
54743;SDS011;40639;53.170;6.728;2023-08-07T13:32:02;7.65;;;1.90;;
54743;SDS011;40639;53.170;6.728;2023-08-07T13:34:34;4.47;;;2.13;;
54743;SDS011;40639;53.170;6.728;2023-08-07T13:37:00;5.95;;;1.95;;
54743;SDS011;40639;53.170;6.728;2023-08-07T13:39:27;5.65;;;2.25;;
54743;SDS011;40639;53.170;6.728;2023-08-07T13:41:53;6.50;;;2.15;;
54743;SDS011;40639;53.170;6.728;2023-08-07T13:44:19;4.93;;;2.10;;
54743;SDS011;40639;53.170;6.728;2023-08-07T13:46:45;5.05;;;2.83;;
54743;SDS011;40639;53.170;6.728;2023-08-07T13:49:12;7.22;;;2.60;;
54743;SDS011;40639;53.170;6.728;2023-08-07T13:51:39;5.75;;;2.25;;
54743;SDS011;40639;53.170;6.728;2023-08-07T13:54:05;8.35;;;2.20;;
54743;SDS011;40639;53.170;6.728;2023-08-07T13:56:31;7.90;;;1.92;;
54743;SDS011;40639;53.170;6.728;2023-08-07T13:58:57;6.07;;;2.00;;
54743;SDS011;40639;53.170;6.728;2023-08-07T14:01:23;5.55;;;1.70;;
54743;SDS011;40639;53.170;6.728;2023-08-07T14:03:49;7.63;;;2.25;;
54743;SDS011;40639;53.170;6.728;2023-08-07T14:06:15;4.65;;;2.08;;
54743;SDS011;40639;53.170;6.728;2023-08-07T14:08:41;4.93;;;2.08;;
54743;SDS011;40639;53.170;6.728;2023-08-07T14:11:07;8.00;;;2.20;;
54743;SDS011;40639;53.170;6.728;2023-08-07T14:13:33;7.95;;;2.28;;
54743;SDS011;40639;53.170;6.728;2023-08-07T14:15:59;9.38;;;2.35;;
54743;SDS011;40639;53.170;6.728;2023-08-07T14:18:25;11.15;;;2.22;;
54743;SDS011;40639;53.170;6.728;2023-08-07T14:20:52;7.30;;;2.10;;
54743;SDS011;40639;53.170;6.728;2023-08-07T14:23:18;6.45;;;2.05;;
54743;SDS011;40639;53.170;6.728;2023-08-07T14:25:44;7.07;;;2.03;;
54743;SDS011;40639;53.170;6.728;2023-08-07T14:28:13;8.73;;;2.40;;
54743;SDS011;40639;53.170;6.728;2023-08-07T14:30:39;5.40;;;2.00;;
54743;SDS011;40639;53.170;6.728;2023-08-07T14:33:05;6.15;;;2.20;;
54743;SDS011;40639;53.170;6.728;2023-08-07T14:35:31;4.32;;;1.67;;
54743;SDS011;40639;53.170;6.728;2023-08-07T14:37:57;6.82;;;2.08;;
54743;SDS011;40639;53.170;6.728;2023-08-07T14:40:24;6.80;;;2.42;;
54743;SDS011;40639;53.170;6.728;2023-08-07T14:42:50;6.75;;;1.52;;
54743;SDS011;40639;53.170;6.728;2023-08-07T14:45:16;4.40;;;1.60;;
54743;SDS011;40639;53.170;6.728;2023-08-07T14:47:42;5.57;;;2.08;;
54743;SDS011;40639;53.170;6.728;2023-08-07T14:50:09;7.68;;;1.98;;
54743;SDS011;40639;53.170;6.728;2023-08-07T14:52:36;8.32;;;2.20;;
54743;SDS011;40639;53.170;6.728;2023-08-07T14:55:02;5.85;;;1.60;;